sensor_id;sensor_type;location;lat;lon;timestamp;temperature;humidity
66752;SHT31;53663;42.676;23.238;2023-04-03T00:02:05;6.76;70.60
66752;SHT31;53663;42.676;23.238;2023-04-03T00:04:31;6.80;70.53
66752;SHT31;53663;42.676;23.238;2023-04-03T00:06:56;6.80;70.52
66752;SHT31;53663;42.676;23.238;2023-04-03T00:09:22;6.80;70.48
66752;SHT31;53663;42.676;23.238;2023-04-03T00:11:47;6.77;70.43
66752;SHT31;53663;42.676;23.238;2023-04-03T00:14:13;6.80;70.52
66752;SHT31;53663;42.676;23.238;2023-04-03T00:16:38;6.76;70.62
66752;SHT31;53663;42.676;23.238;2023-04-03T00:19:04;6.73;70.65
66752;SHT31;53663;42.676;23.238;2023-04-03T00:21:30;6.76;70.84
66752;SHT31;53663;42.676;23.238;2023-04-03T00:23:55;6.74;70.48
66752;SHT31;53663;42.676;23.238;2023-04-03T00:26:21;6.73;70.71
66752;SHT31;53663;42.676;23.238;2023-04-03T00:28:46;6.67;71.05
66752;SHT31;53663;42.676;23.238;2023-04-03T00:31:15;6.68;70.84
66752;SHT31;53663;42.676;23.238;2023-04-03T00:33:41;6.68;70.93
66752;SHT31;53663;42.676;23.238;2023-04-03T00:36:10;6.70;71.19
66752;SHT31;53663;42.676;23.238;2023-04-03T00:38:36;6.73;70.99
66752;SHT31;53663;42.676;23.238;2023-04-03T00:41:02;6.71;70.89
66752;SHT31;53663;42.676;23.238;2023-04-03T00:43:28;6.73;71.06
66752;SHT31;53663;42.676;23.238;2023-04-03T00:45:56;6.70;70.89
66752;SHT31;53663;42.676;23.238;2023-04-03T00:48:33;6.74;70.94
66752;SHT31;53663;42.676;23.238;2023-04-03T00:51:01;6.78;71.00
66752;SHT31;53663;42.676;23.238;2023-04-03T00:53:39;6.74;70.72
66752;SHT31;53663;42.676;23.238;2023-04-03T00:56:07;6.70;71.13
66752;SHT31;53663;42.676;23.238;2023-04-03T00:58:44;6.71;71.11
66752;SHT31;53663;42.676;23.238;2023-04-03T01:01:13;6.71;71.19
66752;SHT31;53663;42.676;23.238;2023-04-03T01:03:41;6.71;71.24
66752;SHT31;53663;42.676;23.238;2023-04-03T01:06:06;6.66;71.51
66752;SHT31;53663;42.676;23.238;2023-04-03T01:08:33;6.68;71.24
66752;SHT31;53663;42.676;23.238;2023-04-03T01:10:59;6.66;71.46
66752;SHT31;53663;42.676;23.238;2023-04-03T01:13:28;6.63;71.68
66752;SHT31;53663;42.676;23.238;2023-04-03T01:15:55;6.61;71.98
66752;SHT31;53663;42.676;23.238;2023-04-03T01:18:24;6.57;71.82
66752;SHT31;53663;42.676;23.238;2023-04-03T01:21:09;6.60;71.95
66752;SHT31;53663;42.676;23.238;2023-04-03T01:26:29;6.32;72.45
66752;SHT31;53663;42.676;23.238;2023-04-03T01:28:55;6.33;72.35
66752;SHT31;53663;42.676;23.238;2023-04-03T01:34:08;6.19;73.01
66752;SHT31;53663;42.676;23.238;2023-04-03T01:36:34;6.18;73.23
66752;SHT31;53663;42.676;23.238;2023-04-03T01:39:00;6.13;73.21
66752;SHT31;53663;42.676;23.238;2023-04-03T01:41:27;6.19;73.29
66752;SHT31;53663;42.676;23.238;2023-04-03T01:43:59;6.16;73.15
66752;SHT31;53663;42.676;23.238;2023-04-03T01:46:25;6.03;73.42
66752;SHT31;53663;42.676;23.238;2023-04-03T01:48:50;5.99;74.08
66752;SHT31;53663;42.676;23.238;2023-04-03T01:51:16;5.89;74.26
66752;SHT31;53663;42.676;23.238;2023-04-03T01:53:42;5.82;74.50
66752;SHT31;53663;42.676;23.238;2023-04-03T01:56:07;5.79;74.63
66752;SHT31;53663;42.676;23.238;2023-04-03T01:58:33;5.81;74.58
66752;SHT31;53663;42.676;23.238;2023-04-03T02:00:59;5.79;74.95
66752;SHT31;53663;42.676;23.238;2023-04-03T02:03:25;5.72;75.00
66752;SHT31;53663;42.676;23.238;2023-04-03T02:05:51;5.60;75.37
66752;SHT31;53663;42.676;23.238;2023-04-03T02:08:17;5.61;75.36
66752;SHT31;53663;42.676;23.238;2023-04-03T02:10:44;5.58;75.50
66752;SHT31;53663;42.676;23.238;2023-04-03T02:13:10;5.61;75.77
66752;SHT31;53663;42.676;23.238;2023-04-03T02:15:39;5.55;75.86
66752;SHT31;53663;42.676;23.238;2023-04-03T02:18:05;5.51;75.69
66752;SHT31;53663;42.676;23.238;2023-04-03T02:20:31;5.36;76.91
66752;SHT31;53663;42.676;23.238;2023-04-03T02:22:56;5.39;76.82
66752;SHT31;53663;42.676;23.238;2023-04-03T02:25:24;5.46;76.53
66752;SHT31;53663;42.676;23.238;2023-04-03T02:27:49;5.41;76.67
66752;SHT31;53663;42.676;23.238;2023-04-03T02:30:15;5.52;76.45
66752;SHT31;53663;42.676;23.238;2023-04-03T02:32:42;5.67;75.89
66752;SHT31;53663;42.676;23.238;2023-04-03T02:35:08;5.58;76.17
66752;SHT31;53663;42.676;23.238;2023-04-03T02:37:34;5.50;76.23
66752;SHT31;53663;42.676;23.238;2023-04-03T02:40:00;5.50;76.37
66752;SHT31;53663;42.676;23.238;2023-04-03T02:42:27;5.52;76.42
66752;SHT31;53663;42.676;23.238;2023-04-03T02:44:52;5.54;76.24
66752;SHT31;53663;42.676;23.238;2023-04-03T02:47:18;5.61;76.12
66752;SHT31;53663;42.676;23.238;2023-04-03T02:49:43;5.75;75.74
66752;SHT31;53663;42.676;23.238;2023-04-03T02:52:10;5.67;75.81
66752;SHT31;53663;42.676;23.238;2023-04-03T02:54:36;5.55;76.16
66752;SHT31;53663;42.676;23.238;2023-04-03T02:57:04;5.54;76.40
66752;SHT31;53663;42.676;23.238;2023-04-03T02:59:30;5.51;76.51
66752;SHT31;53663;42.676;23.238;2023-04-03T03:01:56;5.48;76.45
66752;SHT31;53663;42.676;23.238;2023-04-03T03:04:21;5.44;76.79
66752;SHT31;53663;42.676;23.238;2023-04-03T03:06:47;5.36;77.07
66752;SHT31;53663;42.676;23.238;2023-04-03T03:09:13;5.36;77.02
66752;SHT31;53663;42.676;23.238;2023-04-03T03:11:39;5.33;77.05
66752;SHT31;53663;42.676;23.238;2023-04-03T03:14:04;5.37;77.10
66752;SHT31;53663;42.676;23.238;2023-04-03T03:16:31;5.41;77.31
66752;SHT31;53663;42.676;23.238;2023-04-03T03:18:57;5.37;77.21
66752;SHT31;53663;42.676;23.238;2023-04-03T03:21:22;5.39;77.15
66752;SHT31;53663;42.676;23.238;2023-04-03T03:23:48;5.39;76.81
66752;SHT31;53663;42.676;23.238;2023-04-03T03:26:14;5.34;76.91
66752;SHT31;53663;42.676;23.238;2023-04-03T03:28:39;5.36;76.89
66752;SHT31;53663;42.676;23.238;2023-04-03T03:31:07;5.39;77.00
66752;SHT31;53663;42.676;23.238;2023-04-03T03:33:34;5.34;76.87
66752;SHT31;53663;42.676;23.238;2023-04-03T03:36:00;5.36;77.20
66752;SHT31;53663;42.676;23.238;2023-04-03T03:38:25;5.34;77.22
66752;SHT31;53663;42.676;23.238;2023-04-03T03:40:52;5.33;77.23
66752;SHT31;53663;42.676;23.238;2023-04-03T03:43:19;5.30;77.12
66752;SHT31;53663;42.676;23.238;2023-04-03T03:45:51;5.26;77.56
66752;SHT31;53663;42.676;23.238;2023-04-03T03:48:17;5.23;77.60
66752;SHT31;53663;42.676;23.238;2023-04-03T03:50:43;5.26;77.59
66752;SHT31;53663;42.676;23.238;2023-04-03T03:53:09;5.22;77.63
66752;SHT31;53663;42.676;23.238;2023-04-03T03:55:35;5.24;77.69
66752;SHT31;53663;42.676;23.238;2023-04-03T03:58:00;5.29;77.83
66752;SHT31;53663;42.676;23.238;2023-04-03T04:00:28;5.24;77.70
66752;SHT31;53663;42.676;23.238;2023-04-03T04:02:56;5.29;77.91
66752;SHT31;53663;42.676;23.238;2023-04-03T04:05:22;5.23;77.88
66752;SHT31;53663;42.676;23.238;2023-04-03T04:07:48;5.20;77.78
66752;SHT31;53663;42.676;23.238;2023-04-03T04:10:14;5.18;77.68
66752;SHT31;53663;42.676;23.238;2023-04-03T04:12:41;5.19;77.83
66752;SHT31;53663;42.676;23.238;2023-04-03T04:15:07;5.24;78.09
66752;SHT31;53663;42.676;23.238;2023-04-03T04:17:32;5.30;78.03
66752;SHT31;53663;42.676;23.238;2023-04-03T04:20:00;5.37;78.13
66752;SHT31;53663;42.676;23.238;2023-04-03T04:22:26;5.39;77.86
66752;SHT31;53663;42.676;23.238;2023-04-03T04:24:52;5.31;77.75
66752;SHT31;53663;42.676;23.238;2023-04-03T04:27:18;5.33;77.99
66752;SHT31;53663;42.676;23.238;2023-04-03T04:29:44;5.34;77.93
66752;SHT31;53663;42.676;23.238;2023-04-03T04:32:09;5.39;77.96
66752;SHT31;53663;42.676;23.238;2023-04-03T04:34:35;5.43;77.80
66752;SHT31;53663;42.676;23.238;2023-04-03T04:37:01;5.50;77.74
66752;SHT31;53663;42.676;23.238;2023-04-03T04:39:27;5.51;77.79
66752;SHT31;53663;42.676;23.238;2023-04-03T04:41:55;5.54;77.89
66752;SHT31;53663;42.676;23.238;2023-04-03T04:44:22;5.55;77.93
66752;SHT31;53663;42.676;23.238;2023-04-03T04:46:47;5.54;77.80
66752;SHT31;53663;42.676;23.238;2023-04-03T04:49:13;5.57;77.70
66752;SHT31;53663;42.676;23.238;2023-04-03T04:51:38;5.68;77.71
66752;SHT31;53663;42.676;23.238;2023-04-03T04:54:04;5.75;77.90
66752;SHT31;53663;42.676;23.238;2023-04-03T04:56:30;5.82;77.90
66752;SHT31;53663;42.676;23.238;2023-04-03T04:58:56;5.85;77.66
66752;SHT31;53663;42.676;23.238;2023-04-03T05:01:23;5.85;77.46
66752;SHT31;53663;42.676;23.238;2023-04-03T05:03:55;5.99;77.62
66752;SHT31;53663;42.676;23.238;2023-04-03T05:06:22;6.09;77.41
66752;SHT31;53663;42.676;23.238;2023-04-03T05:08:48;6.16;77.31
66752;SHT31;53663;42.676;23.238;2023-04-03T05:11:14;6.32;76.99
66752;SHT31;53663;42.676;23.238;2023-04-03T05:13:40;6.36;76.64
66752;SHT31;53663;42.676;23.238;2023-04-03T05:16:06;6.41;76.62
66752;SHT31;53663;42.676;23.238;2023-04-03T05:18:32;6.54;76.55
66752;SHT31;53663;42.676;23.238;2023-04-03T05:21:02;6.74;76.66
66752;SHT31;53663;42.676;23.238;2023-04-03T05:23:27;6.88;75.96
66752;SHT31;53663;42.676;23.238;2023-04-03T05:25:54;7.02;75.34
66752;SHT31;53663;42.676;23.238;2023-04-03T05:28:21;7.20;75.10
66752;SHT31;53663;42.676;23.238;2023-04-03T05:30:53;7.32;75.32
66752;SHT31;53663;42.676;23.238;2023-04-03T05:33:20;7.46;75.14
66752;SHT31;53663;42.676;23.238;2023-04-03T05:35:50;7.63;73.65
66752;SHT31;53663;42.676;23.238;2023-04-03T05:38:20;7.94;72.48
66752;SHT31;53663;42.676;23.238;2023-04-03T05:40:46;8.09;71.11
66752;SHT31;53663;42.676;23.238;2023-04-03T05:43:12;8.15;71.07
66752;SHT31;53663;42.676;23.238;2023-04-03T05:45:40;8.26;70.82
66752;SHT31;53663;42.676;23.238;2023-04-03T05:48:05;8.41;70.24
66752;SHT31;53663;42.676;23.238;2023-04-03T05:50:31;8.48;69.22
66752;SHT31;53663;42.676;23.238;2023-04-03T05:52:57;8.66;68.57
66752;SHT31;53663;42.676;23.238;2023-04-03T05:55:26;8.63;68.68
66752;SHT31;53663;42.676;23.238;2023-04-03T05:57:52;8.60;68.63
66752;SHT31;53663;42.676;23.238;2023-04-03T06:00:18;8.33;69.36
66752;SHT31;53663;42.676;23.238;2023-04-03T06:02:53;8.52;69.59
66752;SHT31;53663;42.676;23.238;2023-04-03T06:05:22;8.66;68.66
66752;SHT31;53663;42.676;23.238;2023-04-03T06:07:49;8.97;67.65
66752;SHT31;53663;42.676;23.238;2023-04-03T06:10:15;9.05;67.79
66752;SHT31;53663;42.676;23.238;2023-04-03T06:12:41;9.05;67.82
66752;SHT31;53663;42.676;23.238;2023-04-03T06:15:07;9.17;67.83
66752;SHT31;53663;42.676;23.238;2023-04-03T06:17:36;9.34;67.26
66752;SHT31;53663;42.676;23.238;2023-04-03T06:20:01;9.49;66.45
66752;SHT31;53663;42.676;23.238;2023-04-03T06:22:29;9.49;65.81
66752;SHT31;53663;42.676;23.238;2023-04-03T06:24:56;9.60;65.64
66752;SHT31;53663;42.676;23.238;2023-04-03T06:27:22;9.75;64.47
66752;SHT31;53663;42.676;23.238;2023-04-03T06:29:48;9.93;63.79
66752;SHT31;53663;42.676;23.238;2023-04-03T06:32:15;10.10;63.56
66752;SHT31;53663;42.676;23.238;2023-04-03T06:34:41;10.17;63.32
66752;SHT31;53663;42.676;23.238;2023-04-03T06:37:14;10.21;63.16
66752;SHT31;53663;42.676;23.238;2023-04-03T06:39:39;10.16;63.53
66752;SHT31;53663;42.676;23.238;2023-04-03T06:42:05;10.16;64.09
66752;SHT31;53663;42.676;23.238;2023-04-03T06:44:37;9.80;65.29
66752;SHT31;53663;42.676;23.238;2023-04-03T06:47:03;10.06;64.09
66752;SHT31;53663;42.676;23.238;2023-04-03T06:49:28;10.17;63.76
66752;SHT31;53663;42.676;23.238;2023-04-03T06:51:55;10.07;64.07
66752;SHT31;53663;42.676;23.238;2023-04-03T06:54:21;9.73;64.89
66752;SHT31;53663;42.676;23.238;2023-04-03T06:56:47;9.90;64.06
66752;SHT31;53663;42.676;23.238;2023-04-03T06:59:13;9.87;63.21
66752;SHT31;53663;42.676;23.238;2023-04-03T07:01:41;10.00;62.99
66752;SHT31;53663;42.676;23.238;2023-04-03T07:04:08;10.06;62.89
66752;SHT31;53663;42.676;23.238;2023-04-03T07:06:34;10.14;62.99
66752;SHT31;53663;42.676;23.238;2023-04-03T07:09:00;10.28;62.56
66752;SHT31;53663;42.676;23.238;2023-04-03T07:11:26;10.37;61.64
66752;SHT31;53663;42.676;23.238;2023-04-03T07:13:52;10.41;62.18
66752;SHT31;53663;42.676;23.238;2023-04-03T07:16:19;10.34;61.54
66752;SHT31;53663;42.676;23.238;2023-04-03T07:18:45;10.16;63.58
66752;SHT31;53663;42.676;23.238;2023-04-03T07:21:11;10.61;61.90
66752;SHT31;53663;42.676;23.238;2023-04-03T07:23:37;10.93;61.05
66752;SHT31;53663;42.676;23.238;2023-04-03T07:26:03;11.19;60.35
66752;SHT31;53663;42.676;23.238;2023-04-03T07:28:29;11.60;58.17
66752;SHT31;53663;42.676;23.238;2023-04-03T07:31:06;11.53;58.71
66752;SHT31;53663;42.676;23.238;2023-04-03T07:33:37;12.05;57.91
66752;SHT31;53663;42.676;23.238;2023-04-03T07:36:03;12.34;56.13
66752;SHT31;53663;42.676;23.238;2023-04-03T07:38:29;12.41;56.67
66752;SHT31;53663;42.676;23.238;2023-04-03T07:40:54;12.73;56.46
66752;SHT31;53663;42.676;23.238;2023-04-03T07:43:21;12.54;55.70
66752;SHT31;53663;42.676;23.238;2023-04-03T07:45:48;12.80;54.33
66752;SHT31;53663;42.676;23.238;2023-04-03T07:48:22;13.02;53.90
66752;SHT31;53663;42.676;23.238;2023-04-03T07:50:47;13.04;53.37
66752;SHT31;53663;42.676;23.238;2023-04-03T07:53:13;13.15;52.70
66752;SHT31;53663;42.676;23.238;2023-04-03T07:55:39;13.22;52.26
66752;SHT31;53663;42.676;23.238;2023-04-03T07:58:12;13.28;53.13
66752;SHT31;53663;42.676;23.238;2023-04-03T08:00:40;13.26;52.47
66752;SHT31;53663;42.676;23.238;2023-04-03T08:03:06;13.07;52.73
66752;SHT31;53663;42.676;23.238;2023-04-03T08:05:42;12.85;53.50
66752;SHT31;53663;42.676;23.238;2023-04-03T08:08:09;11.78;56.63
66752;SHT31;53663;42.676;23.238;2023-04-03T08:10:35;11.41;58.01
66752;SHT31;53663;42.676;23.238;2023-04-03T08:13:01;11.88;56.50
66752;SHT31;53663;42.676;23.238;2023-04-03T08:15:27;12.22;54.48
66752;SHT31;53663;42.676;23.238;2023-04-03T08:17:53;12.12;54.51
66752;SHT31;53663;42.676;23.238;2023-04-03T08:20:19;12.39;55.35
66752;SHT31;53663;42.676;23.238;2023-04-03T08:22:45;12.63;54.35
66752;SHT31;53663;42.676;23.238;2023-04-03T08:25:10;12.43;55.87
66752;SHT31;53663;42.676;23.238;2023-04-03T08:27:36;12.39;56.24
66752;SHT31;53663;42.676;23.238;2023-04-03T08:30:03;12.76;54.31
66752;SHT31;53663;42.676;23.238;2023-04-03T08:32:29;12.70;54.76
66752;SHT31;53663;42.676;23.238;2023-04-03T08:34:55;12.59;55.08
66752;SHT31;53663;42.676;23.238;2023-04-03T08:37:21;12.59;54.97
66752;SHT31;53663;42.676;23.238;2023-04-03T08:39:46;12.50;54.52
66752;SHT31;53663;42.676;23.238;2023-04-03T08:45:10;11.74;57.77
66752;SHT31;53663;42.676;23.238;2023-04-03T08:47:42;12.02;56.41
66752;SHT31;53663;42.676;23.238;2023-04-03T08:50:28;12.46;55.15
66752;SHT31;53663;42.676;23.238;2023-04-03T08:52:57;12.41;53.47
66752;SHT31;53663;42.676;23.238;2023-04-03T08:58:14;12.15;55.26
66752;SHT31;53663;42.676;23.238;2023-04-03T09:00:55;11.92;56.05
66752;SHT31;53663;42.676;23.238;2023-04-03T09:03:22;12.23;54.26
66752;SHT31;53663;42.676;23.238;2023-04-03T09:06:02;12.30;54.86
66752;SHT31;53663;42.676;23.238;2023-04-03T09:11:16;12.88;52.80
66752;SHT31;53663;42.676;23.238;2023-04-03T09:13:57;12.73;53.30
66752;SHT31;53663;42.676;23.238;2023-04-03T09:21:51;12.51;53.57
66752;SHT31;53663;42.676;23.238;2023-04-03T09:24:17;12.68;53.17
66752;SHT31;53663;42.676;23.238;2023-04-03T09:26:49;12.65;54.05
66752;SHT31;53663;42.676;23.238;2023-04-03T09:29:22;12.60;54.28
66752;SHT31;53663;42.676;23.238;2023-04-03T09:31:50;12.64;54.22
66752;SHT31;53663;42.676;23.238;2023-04-03T09:34:31;13.07;52.61
66752;SHT31;53663;42.676;23.238;2023-04-03T09:37:02;13.28;52.84
66752;SHT31;53663;42.676;23.238;2023-04-03T09:39:32;13.32;51.82
66752;SHT31;53663;42.676;23.238;2023-04-03T09:42:00;13.50;51.60
66752;SHT31;53663;42.676;23.238;2023-04-03T09:44:34;13.43;51.76
66752;SHT31;53663;42.676;23.238;2023-04-03T09:49:44;13.53;50.85
66752;SHT31;53663;42.676;23.238;2023-04-03T09:52:26;13.49;51.05
66752;SHT31;53663;42.676;23.238;2023-04-03T09:54:52;13.62;51.92
66752;SHT31;53663;42.676;23.238;2023-04-03T09:57:18;13.40;51.37
66752;SHT31;53663;42.676;23.238;2023-04-03T10:00:00;13.40;51.33
66752;SHT31;53663;42.676;23.238;2023-04-03T10:02:40;13.46;51.10
66752;SHT31;53663;42.676;23.238;2023-04-03T10:05:31;13.39;51.25
66752;SHT31;53663;42.676;23.238;2023-04-03T10:10:43;13.32;51.35
66752;SHT31;53663;42.676;23.238;2023-04-03T10:15:48;13.02;51.25
66752;SHT31;53663;42.676;23.238;2023-04-03T10:18:39;13.14;50.45
66752;SHT31;53663;42.676;23.238;2023-04-03T10:21:48;13.29;50.48
66752;SHT31;53663;42.676;23.238;2023-04-03T10:24:21;13.14;50.47
66752;SHT31;53663;42.676;23.238;2023-04-03T10:27:13;12.99;50.75
66752;SHT31;53663;42.676;23.238;2023-04-03T10:29:52;13.04;51.07
66752;SHT31;53663;42.676;23.238;2023-04-03T10:46:28;13.07;50.68
66752;SHT31;53663;42.676;23.238;2023-04-03T10:54:12;12.57;52.74
66752;SHT31;53663;42.676;23.238;2023-04-03T10:56:50;12.50;52.04
66752;SHT31;53663;42.676;23.238;2023-04-03T11:01:56;12.26;52.91
66752;SHT31;53663;42.676;23.238;2023-04-03T11:04:23;12.12;53.84
66752;SHT31;53663;42.676;23.238;2023-04-03T11:07:12;12.01;56.13
66752;SHT31;53663;42.676;23.238;2023-04-03T11:09:43;12.03;54.76
66752;SHT31;53663;42.676;23.238;2023-04-03T11:12:41;11.93;57.40
66752;SHT31;53663;42.676;23.238;2023-04-03T11:15:12;11.84;58.05
66752;SHT31;53663;42.676;23.238;2023-04-03T11:17:43;11.81;57.29
66752;SHT31;53663;42.676;23.238;2023-04-03T11:22:47;11.54;58.55
66752;SHT31;53663;42.676;23.238;2023-04-03T11:25:24;11.28;60.88
66752;SHT31;53663;42.676;23.238;2023-04-03T11:27:59;11.27;61.48
66752;SHT31;53663;42.676;23.238;2023-04-03T11:30:30;11.10;63.80
66752;SHT31;53663;42.676;23.238;2023-04-03T11:33:08;11.03;66.34
66752;SHT31;53663;42.676;23.238;2023-04-03T11:35:36;10.93;67.84
66752;SHT31;53663;42.676;23.238;2023-04-03T11:38:04;10.88;66.95
66752;SHT31;53663;42.676;23.238;2023-04-03T11:40:36;10.89;68.97
66752;SHT31;53663;42.676;23.238;2023-04-03T11:43:07;10.80;67.95
66752;SHT31;53663;42.676;23.238;2023-04-03T11:45:34;10.72;70.65
66752;SHT31;53663;42.676;23.238;2023-04-03T11:48:06;10.76;70.01
66752;SHT31;53663;42.676;23.238;2023-04-03T11:50:48;10.54;71.40
66752;SHT31;53663;42.676;23.238;2023-04-03T11:55:46;10.34;72.43
66752;SHT31;53663;42.676;23.238;2023-04-03T11:58:24;10.21;73.20
66752;SHT31;53663;42.676;23.238;2023-04-03T12:00:59;10.27;73.43
66752;SHT31;53663;42.676;23.238;2023-04-03T12:08:42;9.94;74.96
66752;SHT31;53663;42.676;23.238;2023-04-03T12:19:27;9.52;78.11
66752;SHT31;53663;42.676;23.238;2023-04-03T12:24:32;9.22;78.95
66752;SHT31;53663;42.676;23.238;2023-04-03T12:29:37;9.15;81.44
66752;SHT31;53663;42.676;23.238;2023-04-03T12:32:48;9.07;81.53
66752;SHT31;53663;42.676;23.238;2023-04-03T12:35:47;8.99;82.35
66752;SHT31;53663;42.676;23.238;2023-04-03T12:38:30;9.05;82.71
66752;SHT31;53663;42.676;23.238;2023-04-03T12:41:19;8.96;82.69
66752;SHT31;53663;42.676;23.238;2023-04-03T12:44:18;8.88;84.46
66752;SHT31;53663;42.676;23.238;2023-04-03T12:46:49;8.88;84.27
66752;SHT31;53663;42.676;23.238;2023-04-03T12:49:38;8.85;84.96
66752;SHT31;53663;42.676;23.238;2023-04-03T12:52:43;8.83;85.00
66752;SHT31;53663;42.676;23.238;2023-04-03T12:55:19;8.88;84.90
66752;SHT31;53663;42.676;23.238;2023-04-03T12:57:46;8.80;84.51
66752;SHT31;53663;42.676;23.238;2023-04-03T13:02:52;8.63;85.51
66752;SHT31;53663;42.676;23.238;2023-04-03T13:05:19;8.64;85.98
66752;SHT31;53663;42.676;23.238;2023-04-03T13:07:49;8.62;85.90
66752;SHT31;53663;42.676;23.238;2023-04-03T13:10:17;8.62;85.58
66752;SHT31;53663;42.676;23.238;2023-04-03T13:15:29;8.57;85.37
66752;SHT31;53663;42.676;23.238;2023-04-03T13:17:56;8.52;85.63
66752;SHT31;53663;42.676;23.238;2023-04-03T13:20:26;8.57;86.63
66752;SHT31;53663;42.676;23.238;2023-04-03T13:25:24;8.54;86.22
66752;SHT31;53663;42.676;23.238;2023-04-03T13:27:52;8.57;86.34
66752;SHT31;53663;42.676;23.238;2023-04-03T13:30:24;8.52;86.79
66752;SHT31;53663;42.676;23.238;2023-04-03T13:32:51;8.46;86.78
66752;SHT31;53663;42.676;23.238;2023-04-03T13:35:36;8.33;87.32
66752;SHT31;53663;42.676;23.238;2023-04-03T13:41:05;8.21;87.99
66752;SHT31;53663;42.676;23.238;2023-04-03T13:43:34;8.25;87.87
66752;SHT31;53663;42.676;23.238;2023-04-03T13:48:46;8.20;88.02
66752;SHT31;53663;42.676;23.238;2023-04-03T13:53:50;8.02;88.57
66752;SHT31;53663;42.676;23.238;2023-04-03T13:56:21;8.06;88.39
66752;SHT31;53663;42.676;23.238;2023-04-03T14:04:21;7.99;87.95
66752;SHT31;53663;42.676;23.238;2023-04-03T14:06:48;7.99;88.28
66752;SHT31;53663;42.676;23.238;2023-04-03T14:09:16;7.88;88.32
66752;SHT31;53663;42.676;23.238;2023-04-03T14:11:42;7.81;88.70
66752;SHT31;53663;42.676;23.238;2023-04-03T14:14:21;7.83;89.00
66752;SHT31;53663;42.676;23.238;2023-04-03T14:16:52;7.88;87.94
66752;SHT31;53663;42.676;23.238;2023-04-03T14:19:30;7.83;88.21
66752;SHT31;53663;42.676;23.238;2023-04-03T14:21:57;7.87;88.00
66752;SHT31;53663;42.676;23.238;2023-04-03T14:24:23;7.84;87.85
66752;SHT31;53663;42.676;23.238;2023-04-03T14:26:52;7.78;88.37
66752;SHT31;53663;42.676;23.238;2023-04-03T14:29:18;7.73;88.06
66752;SHT31;53663;42.676;23.238;2023-04-03T14:31:45;7.74;88.68
66752;SHT31;53663;42.676;23.238;2023-04-03T14:34:12;7.73;88.56
66752;SHT31;53663;42.676;23.238;2023-04-03T14:36:39;7.70;86.86
66752;SHT31;53663;42.676;23.238;2023-04-03T14:39:07;7.62;87.74
66752;SHT31;53663;42.676;23.238;2023-04-03T14:41:34;7.59;88.51
66752;SHT31;53663;42.676;23.238;2023-04-03T14:43:59;7.66;87.33
66752;SHT31;53663;42.676;23.238;2023-04-03T14:46:31;7.59;87.64
66752;SHT31;53663;42.676;23.238;2023-04-03T14:48:57;7.53;87.79
66752;SHT31;53663;42.676;23.238;2023-04-03T14:51:23;7.52;88.23
66752;SHT31;53663;42.676;23.238;2023-04-03T14:53:50;7.56;88.10
66752;SHT31;53663;42.676;23.238;2023-04-03T14:56:25;7.49;88.31
66752;SHT31;53663;42.676;23.238;2023-04-03T14:58:56;7.56;86.31
66752;SHT31;53663;42.676;23.238;2023-04-03T15:01:22;7.52;86.96
66752;SHT31;53663;42.676;23.238;2023-04-03T15:03:49;7.53;86.82
66752;SHT31;53663;42.676;23.238;2023-04-03T15:06:15;7.47;87.76
66752;SHT31;53663;42.676;23.238;2023-04-03T15:08:42;7.46;87.14
66752;SHT31;53663;42.676;23.238;2023-04-03T15:11:09;7.32;87.92
66752;SHT31;53663;42.676;23.238;2023-04-03T15:13:36;7.39;87.21
66752;SHT31;53663;42.676;23.238;2023-04-03T15:16:02;7.40;86.76
66752;SHT31;53663;42.676;23.238;2023-04-03T15:18:33;7.35;87.85
66752;SHT31;53663;42.676;23.238;2023-04-03T15:21:01;7.43;87.82
66752;SHT31;53663;42.676;23.238;2023-04-03T15:23:27;7.37;87.47
66752;SHT31;53663;42.676;23.238;2023-04-03T15:25:53;7.43;88.16
66752;SHT31;53663;42.676;23.238;2023-04-03T15:28:35;7.39;88.24
66752;SHT31;53663;42.676;23.238;2023-04-03T15:31:03;7.35;88.43
66752;SHT31;53663;42.676;23.238;2023-04-03T15:33:30;7.36;88.05
66752;SHT31;53663;42.676;23.238;2023-04-03T15:35:56;7.35;88.34
66752;SHT31;53663;42.676;23.238;2023-04-03T15:38:22;7.25;88.89
66752;SHT31;53663;42.676;23.238;2023-04-03T15:40:47;7.33;88.47
66752;SHT31;53663;42.676;23.238;2023-04-03T15:43:14;7.27;89.25
66752;SHT31;53663;42.676;23.238;2023-04-03T15:45:40;7.29;89.14
66752;SHT31;53663;42.676;23.238;2023-04-03T15:48:06;7.29;89.05
66752;SHT31;53663;42.676;23.238;2023-04-03T15:50:33;7.20;89.33
66752;SHT31;53663;42.676;23.238;2023-04-03T15:53:00;7.22;89.61
66752;SHT31;53663;42.676;23.238;2023-04-03T15:55:29;7.32;89.52
66752;SHT31;53663;42.676;23.238;2023-04-03T15:57:55;7.22;89.61
66752;SHT31;53663;42.676;23.238;2023-04-03T16:00:21;7.09;90.53
66752;SHT31;53663;42.676;23.238;2023-04-03T16:02:48;7.26;90.35
66752;SHT31;53663;42.676;23.238;2023-04-03T16:05:15;7.19;90.34
66752;SHT31;53663;42.676;23.238;2023-04-03T16:07:42;7.16;90.57
66752;SHT31;53663;42.676;23.238;2023-04-03T16:10:09;7.14;90.89
66752;SHT31;53663;42.676;23.238;2023-04-03T16:12:36;7.22;91.02
66752;SHT31;53663;42.676;23.238;2023-04-03T16:15:02;7.23;90.92
66752;SHT31;53663;42.676;23.238;2023-04-03T16:17:28;7.26;90.87
66752;SHT31;53663;42.676;23.238;2023-04-03T16:19:55;7.19;90.45
66752;SHT31;53663;42.676;23.238;2023-04-03T16:22:23;7.15;90.03
66752;SHT31;53663;42.676;23.238;2023-04-03T16:24:50;7.06;90.37
66752;SHT31;53663;42.676;23.238;2023-04-03T16:27:16;7.14;90.18
66752;SHT31;53663;42.676;23.238;2023-04-03T16:29:42;7.02;89.48
66752;SHT31;53663;42.676;23.238;2023-04-03T16:32:07;7.02;89.75
66752;SHT31;53663;42.676;23.238;2023-04-03T16:34:33;7.02;90.09
66752;SHT31;53663;42.676;23.238;2023-04-03T16:36:59;6.99;89.70
66752;SHT31;53663;42.676;23.238;2023-04-03T16:39:25;6.98;89.38
66752;SHT31;53663;42.676;23.238;2023-04-03T16:41:51;6.87;89.21
66752;SHT31;53663;42.676;23.238;2023-04-03T16:44:17;6.92;89.06
66752;SHT31;53663;42.676;23.238;2023-04-03T16:46:42;6.87;87.71
66752;SHT31;53663;42.676;23.238;2023-04-03T16:49:08;6.83;88.37
66752;SHT31;53663;42.676;23.238;2023-04-03T16:51:34;6.83;88.92
66752;SHT31;53663;42.676;23.238;2023-04-03T16:53:59;6.83;89.17
66752;SHT31;53663;42.676;23.238;2023-04-03T16:56:25;6.77;88.90
66752;SHT31;53663;42.676;23.238;2023-04-03T16:58:54;6.87;88.61
66752;SHT31;53663;42.676;23.238;2023-04-03T17:01:21;6.91;87.76
66752;SHT31;53663;42.676;23.238;2023-04-03T17:03:47;6.87;87.56
66752;SHT31;53663;42.676;23.238;2023-04-03T17:06:17;6.83;87.39
66752;SHT31;53663;42.676;23.238;2023-04-03T17:08:46;6.85;87.27
66752;SHT31;53663;42.676;23.238;2023-04-03T17:11:25;6.74;88.27
66752;SHT31;53663;42.676;23.238;2023-04-03T17:13:51;6.78;88.59